createdAt,value
2023-03-29T00:01:34.825Z,2.60
2023-03-29T00:06:33.282Z,3.42
2023-03-29T00:11:26.153Z,1.50
2023-03-29T00:16:18.048Z,2.60
2023-03-29T00:21:09.941Z,6.47
2023-03-29T00:26:02.256Z,3.55
2023-03-29T00:30:54.412Z,4.85
2023-03-29T00:35:48.549Z,2.15
2023-03-29T00:40:47.073Z,3.60
2023-03-29T00:50:39.819Z,5.85
2023-03-29T00:55:38.963Z,4.38
2023-03-29T01:00:35.612Z,3.58
2023-03-29T01:05:40.632Z,6.28
2023-03-29T01:10:44.044Z,3.55
2023-03-29T01:15:38.922Z,2.00
2023-03-29T01:20:43.743Z,3.65
2023-03-29T01:25:50.528Z,3.33
2023-03-29T01:30:53.623Z,4.22
2023-03-29T01:35:51.327Z,2.47
2023-03-29T01:40:43.185Z,2.03
2023-03-29T01:46:27.567Z,2.78
2023-03-29T01:51:29.487Z,5.95
2023-03-29T01:56:25.119Z,3.28
2023-03-29T02:01:23.216Z,4.43
2023-03-29T02:06:20.920Z,2.43
2023-03-29T02:11:13.081Z,3.70
2023-03-29T02:16:12.815Z,3.15
2023-03-29T02:21:05.353Z,2.67
2023-03-29T02:25:58.992Z,3.83
2023-03-29T02:30:54.801Z,9.25
2023-03-29T02:35:59.263Z,2.60
2023-03-29T02:40:53.057Z,6.25
2023-03-29T02:45:46.230Z,2.67
2023-03-29T02:50:40.286Z,3.25
2023-03-29T02:55:34.857Z,3.55
2023-03-29T03:00:26.857Z,2.63
2023-03-29T03:05:19.555Z,4.03
2023-03-29T03:10:11.447Z,7.68
2023-03-29T03:15:06.123Z,3.20
2023-03-29T03:19:58.180Z,4.90
2023-03-29T03:24:53.310Z,3.13
2023-03-29T03:29:45.328Z,4.30
2023-03-29T03:34:37.088Z,2.88
2023-03-29T03:39:29.591Z,3.47
2023-03-29T03:44:21.850Z,7.60
2023-03-29T03:49:32.505Z,4.88
2023-03-29T03:54:24.776Z,4.03
2023-03-29T03:59:37.168Z,3.08
2023-03-29T04:04:34.402Z,2.13
2023-03-29T04:09:34.177Z,3.13
2023-03-29T04:14:54.040Z,6.82
2023-03-29T04:19:47.174Z,3.88
2023-03-29T04:24:39.225Z,6.10
2023-03-29T04:29:49.584Z,4.63
2023-03-29T04:34:52.529Z,6.70
2023-03-29T04:39:45.035Z,4.70
2023-03-29T04:44:38.209Z,5.03
2023-03-29T04:49:33.110Z,3.13
2023-03-29T04:54:25.035Z,3.15
2023-03-29T04:59:41.772Z,3.25
2023-03-29T05:04:44.753Z,5.57
2023-03-29T05:09:41.784Z,9.27
2023-03-29T05:14:35.305Z,6.32
2023-03-29T05:19:28.099Z,9.65
2023-03-29T05:24:20.624Z,6.50
2023-03-29T05:29:19.217Z,4.97
2023-03-29T05:34:17.006Z,10.73
2023-03-29T05:39:13.744Z,9.13
2023-03-29T05:44:06.464Z,8.77
2023-03-29T05:48:58.972Z,6.72
2023-03-29T05:54:05.944Z,6.55
2023-03-29T05:58:59.918Z,7.22
2023-03-29T06:03:53.022Z,8.27
2023-03-29T06:08:48.745Z,5.88
2023-03-29T06:13:47.558Z,6.28
2023-03-29T06:18:40.460Z,4.47
2023-03-29T06:23:32.638Z,7.95
2023-03-29T06:28:24.980Z,4.63
2023-03-29T06:33:17.270Z,7.40
2023-03-29T06:38:16.857Z,7.00
2023-03-29T06:43:28.224Z,5.78
2023-03-29T06:48:30.903Z,6.95
2023-03-29T06:53:22.885Z,6.22
2023-03-29T06:58:26.013Z,6.13
2023-03-29T07:03:23.725Z,4.90
2023-03-29T07:08:21.469Z,4.63
2023-03-29T07:13:26.474Z,5.55
2023-03-29T07:18:20.013Z,5.18
2023-03-29T07:23:11.947Z,9.68
2023-03-29T07:28:04.479Z,8.43
2023-03-29T07:32:58.770Z,9.85
2023-03-29T07:37:59.339Z,6.57
2023-03-29T07:42:54.424Z,8.35
2023-03-29T07:47:49.201Z,5.28
2023-03-29T07:52:41.680Z,7.20
2023-03-29T07:57:34.795Z,5.88
2023-03-29T08:02:27.529Z,4.15
2023-03-29T08:07:24.219Z,7.18
2023-03-29T08:12:19.054Z,9.88
2023-03-29T08:17:11.084Z,8.70
2023-03-29T08:22:11.086Z,7.13
2023-03-29T08:27:21.584Z,4.47
2023-03-29T08:32:14.349Z,5.30
2023-03-29T08:37:08.747Z,4.65
2023-03-29T08:42:50.540Z,6.32
2023-03-29T08:48:03.148Z,6.05
2023-03-29T08:53:02.323Z,4.55
2023-03-29T08:58:28.694Z,4.18
2023-03-29T09:03:24.834Z,4.90
2023-03-29T09:08:21.601Z,3.22
2023-03-29T09:13:33.808Z,8.95
2023-03-29T09:18:40.407Z,5.53
2023-03-29T09:24:16.085Z,6.45
2023-03-29T09:29:24.528Z,8.60
2023-03-29T09:34:23.108Z,4.55
2023-03-29T09:39:23.767Z,6.00
2023-03-29T09:44:31.804Z,5.72
2023-03-29T09:49:36.313Z,4.47
2023-03-29T09:54:28.354Z,6.05
2023-03-29T09:59:55.440Z,6.93
2023-03-29T10:04:55.571Z,6.35
2023-03-29T10:09:50.752Z,7.00
2023-03-29T10:14:48.265Z,7.17
2023-03-29T10:19:51.923Z,10.38
2023-03-29T10:24:49.475Z,7.35
2023-03-29T10:29:43.218Z,6.88
2023-03-29T10:34:35.107Z,6.38
2023-03-29T10:39:34.650Z,4.97
2023-03-29T10:44:32.774Z,11.23
2023-03-29T10:54:22.043Z,9.25
2023-03-29T10:59:28.962Z,10.95
2023-03-29T11:04:56.864Z,8.57
2023-03-29T11:09:55.853Z,9.05
2023-03-29T11:15:14.903Z,7.57
2023-03-29T11:20:18.961Z,8.75
2023-03-29T11:25:23.131Z,7.68
2023-03-29T11:30:27.658Z,6.85
2023-03-29T11:35:22.580Z,6.85
2023-03-29T11:40:39.600Z,9.20
2023-03-29T11:45:45.868Z,7.75
2023-03-29T11:50:48.799Z,9.50
2023-03-29T11:55:41.737Z,12.00
2023-03-29T12:00:40.695Z,7.05
2023-03-29T12:05:42.348Z,7.53
2023-03-29T12:10:48.227Z,8.32
2023-03-29T12:15:45.779Z,7.53
2023-03-29T12:20:40.568Z,7.93
2023-03-29T12:26:16.531Z,9.80
2023-03-29T12:31:25.836Z,8.07
2023-03-29T12:36:41.807Z,10.82
2023-03-29T12:42:22.613Z,9.68
2023-03-29T12:47:45.092Z,22.45
2023-03-29T12:52:37.334Z,10.32
2023-03-29T12:57:41.497Z,10.50
2023-03-29T13:02:36.429Z,8.82
2023-03-29T13:07:45.920Z,8.23
2023-03-29T13:12:42.437Z,9.40
2023-03-29T13:17:56.327Z,16.48
2023-03-29T13:23:10.837Z,8.95
2023-03-29T13:28:10.637Z,8.40
2023-03-29T13:33:21.193Z,9.85
2023-03-29T13:38:18.223Z,11.43
2023-03-29T13:43:23.150Z,6.57
2023-03-29T13:48:28.985Z,10.38
2023-03-29T13:53:31.789Z,6.80
2023-03-29T13:58:41.934Z,12.90
2023-03-29T14:03:45.160Z,7.25
2023-03-29T14:08:40.556Z,8.15
2023-03-29T14:13:32.776Z,11.52
2023-03-29T14:18:27.640Z,11.23
2023-03-29T14:23:30.460Z,7.13
2023-03-29T14:28:25.002Z,10.48
2023-03-29T14:33:31.273Z,11.77
2023-03-29T14:38:24.409Z,10.90
2023-03-29T14:43:22.541Z,9.85
2023-03-29T14:48:15.198Z,9.50
2023-03-29T14:53:08.407Z,8.60
2023-03-29T14:58:00.764Z,9.05
2023-03-29T15:03:01.275Z,11.25
2023-03-29T15:07:56.366Z,8.27
2023-03-29T15:12:49.276Z,7.22
2023-03-29T15:17:51.801Z,9.27
2023-03-29T15:23:04.645Z,8.02
2023-03-29T15:28:00.253Z,10.25
2023-03-29T15:32:53.435Z,7.60
2023-03-29T15:37:45.328Z,6.82
2023-03-29T15:42:37.134Z,8.75
2023-03-29T15:47:28.946Z,1.95
2023-03-29T15:52:20.721Z,6.00
2023-03-29T15:57:15.052Z,5.93
2023-03-29T16:02:15.894Z,3.05
2023-03-29T16:07:14.300Z,3.25
2023-03-29T16:12:06.160Z,7.82
2023-03-29T16:17:00.401Z,6.18
2023-03-29T16:21:53.443Z,12.65
2023-03-29T16:26:46.253Z,7.00
2023-03-29T16:31:38.217Z,3.78
2023-03-29T16:36:31.140Z,4.90
2023-03-29T16:41:23.949Z,5.45
2023-03-29T16:46:15.945Z,2.38
2023-03-29T16:51:08.087Z,2.88
2023-03-29T16:56:00.708Z,2.47
2023-03-29T17:00:53.274Z,0.80
2023-03-29T17:05:50.356Z,2.47
2023-03-29T17:10:42.767Z,7.20
2023-03-29T17:15:36.704Z,1.30
2023-03-29T17:20:31.866Z,3.53
2023-03-29T17:25:24.265Z,1.70
2023-03-29T17:30:16.803Z,1.17
2023-03-29T17:35:10.493Z,1.33
2023-03-29T17:40:10.323Z,1.63
2023-03-29T17:45:02.433Z,2.63
2023-03-29T17:49:54.224Z,6.93
2023-03-29T17:54:46.032Z,11.85
2023-03-29T17:59:38.264Z,2.35
2023-03-29T18:04:29.990Z,2.83
2023-03-29T18:09:21.723Z,4.30
2023-03-29T18:14:13.504Z,4.22
2023-03-29T18:19:05.395Z,3.63
2023-03-29T18:23:57.250Z,2.05
2023-03-29T18:28:49.097Z,4.40
2023-03-29T18:33:41.067Z,1.10
2023-03-29T18:38:35.458Z,4.20
2023-03-29T18:43:27.280Z,4.35
2023-03-29T18:48:19.034Z,1.63
2023-03-29T18:53:11.169Z,1.90
2023-03-29T18:58:02.927Z,1.63
2023-03-29T19:02:54.708Z,2.10
2023-03-29T19:07:46.688Z,1.92
2023-03-29T19:12:38.496Z,1.73
2023-03-29T19:17:31.016Z,2.35
2023-03-29T19:22:22.907Z,1.25
2023-03-29T19:27:14.731Z,1.25
2023-03-29T19:32:07.125Z,3.63
2023-03-29T19:37:00.552Z,2.20
2023-03-29T19:41:53.050Z,2.47
2023-03-29T19:46:44.776Z,2.17
2023-03-29T19:51:36.547Z,0.50
2023-03-29T19:56:28.349Z,1.77
2023-03-29T20:01:21.227Z,2.85
2023-03-29T20:06:13.096Z,1.45
2023-03-29T20:11:10.601Z,2.15
2023-03-29T20:16:02.505Z,1.52
2023-03-29T20:20:54.926Z,1.02
2023-03-29T20:25:47.286Z,1.05
2023-03-29T20:30:40.439Z,1.30
2023-03-29T20:35:32.213Z,0.88
2023-03-29T20:40:23.987Z,0.93
2023-03-29T20:45:18.942Z,0.93
2023-03-29T20:50:10.977Z,0.98
2023-03-29T20:55:03.656Z,0.55
2023-03-29T20:59:55.394Z,2.28
2023-03-29T21:04:52.058Z,1.60
2023-03-29T21:09:44.038Z,1.00
2023-03-29T21:14:35.763Z,2.33
2023-03-29T21:19:27.939Z,0.85
2023-03-29T21:24:19.752Z,1.77
2023-03-29T21:29:11.611Z,1.60
2023-03-29T21:34:03.532Z,0.77
2023-03-29T21:38:56.009Z,1.27
2023-03-29T21:43:48.037Z,1.35
2023-03-29T21:48:39.962Z,0.60
2023-03-29T21:53:31.779Z,2.60
2023-03-29T21:58:23.646Z,1.25
2023-03-29T22:03:16.785Z,2.55
2023-03-29T22:08:10.525Z,2.03
2023-03-29T22:13:02.284Z,1.15
2023-03-29T22:17:54.222Z,1.42
2023-03-29T22:22:50.942Z,3.10
2023-03-29T22:27:44.637Z,1.05
2023-03-29T22:32:36.693Z,1.85
2023-03-29T22:37:28.773Z,0.95
2023-03-29T22:42:20.854Z,4.03
2023-03-29T22:47:13.022Z,1.55
2023-03-29T22:52:04.939Z,3.95
2023-03-29T22:56:57.310Z,2.38
2023-03-29T23:01:50.207Z,2.85
2023-03-29T23:06:42.150Z,2.72
2023-03-29T23:11:33.975Z,2.85
2023-03-29T23:16:25.893Z,5.25
2023-03-29T23:21:17.872Z,3.80
2023-03-29T23:26:10.501Z,8.77
2023-03-29T23:31:10.146Z,5.75
2023-03-29T23:36:04.805Z,4.97
2023-03-29T23:40:59.312Z,7.10
2023-03-29T23:45:56.712Z,6.28
2023-03-29T23:50:48.434Z,8.52
2023-03-29T23:55:40.153Z,7.38
